sensor_id;sensor_type;location;lat;lon;timestamp;pressure;altitude;pressure_sealevel;temperature;humidity
53300;BME280;39187;48.476;8.310;2023-04-27T00:01:17;91259.91;;;5.37;92.96
53300;BME280;39187;48.476;8.310;2023-04-27T00:03:42;91257.63;;;5.39;92.88
53300;BME280;39187;48.476;8.310;2023-04-27T00:06:10;91264.03;;;5.38;92.49
53300;BME280;39187;48.476;8.310;2023-04-27T00:08:35;91263.28;;;5.27;93.13
53300;BME280;39187;48.476;8.310;2023-04-27T00:11:01;91261.75;;;5.40;92.38
53300;BME280;39187;48.476;8.310;2023-04-27T00:13:27;91262.13;;;5.38;92.12
53300;BME280;39187;48.476;8.310;2023-04-27T00:15:53;91252.72;;;5.41;91.81
53300;BME280;39187;48.476;8.310;2023-04-27T00:18:19;91251.97;;;5.37;91.73
53300;BME280;39187;48.476;8.310;2023-04-27T00:20:44;91252.75;;;5.12;89.77
53300;BME280;39187;48.476;8.310;2023-04-27T00:23:10;91250.84;;;5.27;88.92
53300;BME280;39187;48.476;8.310;2023-04-27T00:25:36;91248.22;;;5.31;90.52
53300;BME280;39187;48.476;8.310;2023-04-27T00:28:01;91251.97;;;5.33;92.01
53300;BME280;39187;48.476;8.310;2023-04-27T00:30:27;91241.03;;;5.35;92.06
53300;BME280;39187;48.476;8.310;2023-04-27T00:32:53;91236.16;;;5.30;92.06
53300;BME280;39187;48.476;8.310;2023-04-27T00:35:18;91233.16;;;5.31;92.42
53300;BME280;39187;48.476;8.310;2023-04-27T00:37:44;91238.78;;;5.19;93.88
53300;BME280;39187;48.476;8.310;2023-04-27T00:40:10;91238.78;;;5.19;93.71
53300;BME280;39187;48.476;8.310;2023-04-27T00:42:36;91238.81;;;5.22;92.77
53300;BME280;39187;48.476;8.310;2023-04-27T00:45:02;91245.97;;;5.15;93.12
53300;BME280;39187;48.476;8.310;2023-04-27T00:47:29;91235.41;;;5.08;93.60
53300;BME280;39187;48.476;8.310;2023-04-27T00:49:55;91237.66;;;5.13;92.98
53300;BME280;39187;48.476;8.310;2023-04-27T00:52:20;91242.59;;;5.11;92.85
53300;BME280;39187;48.476;8.310;2023-04-27T00:54:49;91235.41;;;5.08;92.18
53300;BME280;39187;48.476;8.310;2023-04-27T00:57:15;91236.19;;;5.05;92.25
53300;BME280;39187;48.476;8.310;2023-04-27T00:59:40;91241.06;;;5.03;92.11
53300;BME280;39187;48.476;8.310;2023-04-27T01:02:06;91233.91;;;4.82;93.22
53300;BME280;39187;48.476;8.310;2023-04-27T01:04:31;91244.09;;;4.91;92.08
53300;BME280;39187;48.476;8.310;2023-04-27T01:06:58;91251.25;;;4.90;92.22
53300;BME280;39187;48.476;8.310;2023-04-27T01:09:23;91245.59;;;4.88;91.74
53300;BME280;39187;48.476;8.310;2023-04-27T01:11:49;91236.91;;;4.88;91.91
53300;BME280;39187;48.476;8.310;2023-04-27T01:14:14;91232.41;;;4.84;91.56
53300;BME280;39187;48.476;8.310;2023-04-27T01:16:41;91235.44;;;4.79;91.05
53300;BME280;39187;48.476;8.310;2023-04-27T01:19:07;91237.66;;;4.63;92.05
53300;BME280;39187;48.476;8.310;2023-04-27T01:21:33;91239.56;;;4.66;91.42
53300;BME280;39187;48.476;8.310;2023-04-27T01:23:58;91234.31;;;4.73;90.55
53300;BME280;39187;48.476;8.310;2023-04-27T01:26:24;91235.81;;;4.78;90.29
53300;BME280;39187;48.476;8.310;2023-04-27T01:28:50;91227.91;;;4.78;90.01
53300;BME280;39187;48.476;8.310;2023-04-27T01:31:15;91233.16;;;4.78;89.76
53300;BME280;39187;48.476;8.310;2023-04-27T01:33:41;91235.81;;;4.78;89.67
53300;BME280;39187;48.476;8.310;2023-04-27T01:36:08;91237.31;;;4.79;89.37
53300;BME280;39187;48.476;8.310;2023-04-27T01:38:34;91246.75;;;4.80;89.33
53300;BME280;39187;48.476;8.310;2023-04-27T01:41:00;91236.94;;;4.77;89.07
53300;BME280;39187;48.476;8.310;2023-04-27T01:43:29;91236.19;;;4.80;88.35
53300;BME280;39187;48.476;8.310;2023-04-27T01:45:56;91235.03;;;4.81;88.41
53300;BME280;39187;48.476;8.310;2023-04-27T01:48:21;91238.44;;;4.81;88.32
53300;BME280;39187;48.476;8.310;2023-04-27T01:50:47;91246.72;;;4.83;88.58
53300;BME280;39187;48.476;8.310;2023-04-27T01:53:12;91244.06;;;4.87;88.44
53300;BME280;39187;48.476;8.310;2023-04-27T01:55:38;91248.97;;;4.89;87.77
53300;BME280;39187;48.476;8.310;2023-04-27T01:58:04;91245.59;;;4.92;87.10
53300;BME280;39187;48.476;8.310;2023-04-27T02:00:29;91249.34;;;4.94;86.87
53300;BME280;39187;48.476;8.310;2023-04-27T02:02:55;91244.47;;;4.96;86.54
53300;BME280;39187;48.476;8.310;2023-04-27T02:05:22;91246.72;;;4.98;86.41
53300;BME280;39187;48.476;8.310;2023-04-27T02:07:48;91250.88;;;5.02;86.40
53300;BME280;39187;48.476;8.310;2023-04-27T02:10:14;91242.22;;;5.05;86.59
53300;BME280;39187;48.476;8.310;2023-04-27T02:12:40;91240.69;;;5.08;87.20
53300;BME280;39187;48.476;8.310;2023-04-27T02:15:06;91244.84;;;5.05;87.08
53300;BME280;39187;48.476;8.310;2023-04-27T02:17:35;91246.72;;;5.08;87.93
53300;BME280;39187;48.476;8.310;2023-04-27T02:20:03;91247.47;;;5.09;88.91
53300;BME280;39187;48.476;8.310;2023-04-27T02:22:31;91242.59;;;5.11;88.53
53300;BME280;39187;48.476;8.310;2023-04-27T02:24:56;91247.47;;;5.12;88.14
53300;BME280;39187;48.476;8.310;2023-04-27T02:27:21;91246.72;;;5.19;86.04
53300;BME280;39187;48.476;8.310;2023-04-27T02:29:47;91244.09;;;5.01;86.07
53300;BME280;39187;48.476;8.310;2023-04-27T02:32:12;91241.44;;;5.15;86.17
53300;BME280;39187;48.476;8.310;2023-04-27T02:34:38;91239.94;;;5.18;87.63
53300;BME280;39187;48.476;8.310;2023-04-27T02:37:03;91240.69;;;5.11;89.39
53300;BME280;39187;48.476;8.310;2023-04-27T02:39:29;91241.47;;;5.12;89.95
53300;BME280;39187;48.476;8.310;2023-04-27T02:41:54;91240.31;;;5.16;88.30
53300;BME280;39187;48.476;8.310;2023-04-27T02:44:20;91236.16;;;5.19;86.81
53300;BME280;39187;48.476;8.310;2023-04-27T02:46:45;91245.22;;;5.21;86.56
53300;BME280;39187;48.476;8.310;2023-04-27T02:49:11;91247.84;;;5.21;85.61
53300;BME280;39187;48.476;8.310;2023-04-27T02:51:36;91239.19;;;5.24;84.76
53300;BME280;39187;48.476;8.310;2023-04-27T02:54:02;91247.09;;;5.28;84.41
53300;BME280;39187;48.476;8.310;2023-04-27T02:56:27;91255.38;;;5.30;84.29
53300;BME280;39187;48.476;8.310;2023-04-27T02:58:53;91243.31;;;5.33;84.61
53300;BME280;39187;48.476;8.310;2023-04-27T03:01:18;91245.94;;;5.33;84.67
53300;BME280;39187;48.476;8.310;2023-04-27T03:03:45;91245.94;;;5.25;85.69
53300;BME280;39187;48.476;8.310;2023-04-27T03:06:11;91252.00;;;5.30;86.62
53300;BME280;39187;48.476;8.310;2023-04-27T03:08:37;91248.94;;;5.42;85.97
53300;BME280;39187;48.476;8.310;2023-04-27T03:11:03;91247.84;;;5.36;86.77
53300;BME280;39187;48.476;8.310;2023-04-27T03:13:28;91248.94;;;5.38;87.38
53300;BME280;39187;48.476;8.310;2023-04-27T03:15:54;91250.09;;;5.37;88.20
53300;BME280;39187;48.476;8.310;2023-04-27T03:18:19;91250.47;;;5.39;87.81
53300;BME280;39187;48.476;8.310;2023-04-27T03:20:45;91241.78;;;5.42;87.71
53300;BME280;39187;48.476;8.310;2023-04-27T03:23:11;91247.44;;;5.41;87.34
53300;BME280;39187;48.476;8.310;2023-04-27T03:25:36;91242.91;;;5.38;87.62
53300;BME280;39187;48.476;8.310;2023-04-27T03:28:02;91246.72;;;5.30;88.43
53300;BME280;39187;48.476;8.310;2023-04-27T03:30:27;91246.69;;;5.33;87.85
53300;BME280;39187;48.476;8.310;2023-04-27T03:32:53;91250.81;;;5.38;87.21
53300;BME280;39187;48.476;8.310;2023-04-27T03:35:19;91248.19;;;5.38;86.75
53300;BME280;39187;48.476;8.310;2023-04-27T03:37:44;91242.91;;;5.41;86.46
53300;BME280;39187;48.476;8.310;2023-04-27T03:40:11;91248.59;;;5.43;85.92
53300;BME280;39187;48.476;8.310;2023-04-27T03:42:36;91240.25;;;5.45;85.31
53300;BME280;39187;48.476;8.310;2023-04-27T03:45:02;91238.75;;;5.54;84.69
53300;BME280;39187;48.476;8.310;2023-04-27T03:47:29;91237.63;;;5.55;85.33
53300;BME280;39187;48.476;8.310;2023-04-27T03:49:55;91247.78;;;5.57;85.25
53300;BME280;39187;48.476;8.310;2023-04-27T03:52:20;91247.06;;;5.56;85.38
53300;BME280;39187;48.476;8.310;2023-04-27T03:54:46;91241.38;;;5.58;85.60
53300;BME280;39187;48.476;8.310;2023-04-27T03:57:11;91241.00;;;5.59;86.53
53300;BME280;39187;48.476;8.310;2023-04-27T03:59:37;91247.00;;;5.67;86.64
53300;BME280;39187;48.476;8.310;2023-04-27T04:02:02;91242.13;;;5.69;87.14
53300;BME280;39187;48.476;8.310;2023-04-27T04:04:29;91231.53;;;5.65;87.85
53300;BME280;39187;48.476;8.310;2023-04-27T04:06:55;91241.34;;;5.69;87.88
53300;BME280;39187;48.476;8.310;2023-04-27T04:09:21;91252.66;;;5.65;88.01
53300;BME280;39187;48.476;8.310;2023-04-27T04:11:46;91247.75;;;5.64;87.99
53300;BME280;39187;48.476;8.310;2023-04-27T04:14:12;91247.41;;;5.62;87.97
53300;BME280;39187;48.476;8.310;2023-04-27T04:16:38;91250.03;;;5.62;87.65
53300;BME280;39187;48.476;8.310;2023-04-27T04:19:03;91252.69;;;5.62;86.89
53300;BME280;39187;48.476;8.310;2023-04-27T04:21:28;91253.44;;;5.62;86.65
53300;BME280;39187;48.476;8.310;2023-04-27T04:23:56;91253.06;;;5.60;86.36
53300;BME280;39187;48.476;8.310;2023-04-27T04:26:21;91254.56;;;5.58;84.84
53300;BME280;39187;48.476;8.310;2023-04-27T04:28:48;91256.09;;;5.52;85.15
53300;BME280;39187;48.476;8.310;2023-04-27T04:31:13;91251.22;;;5.50;85.81
53300;BME280;39187;48.476;8.310;2023-04-27T04:33:41;91248.19;;;5.48;87.19
53300;BME280;39187;48.476;8.310;2023-04-27T04:36:07;91252.72;;;5.48;88.19
53300;BME280;39187;48.476;8.310;2023-04-27T04:38:33;91257.25;;;5.47;88.47
53300;BME280;39187;48.476;8.310;2023-04-27T04:40:58;91256.47;;;5.47;88.51
53300;BME280;39187;48.476;8.310;2023-04-27T04:43:24;91257.25;;;5.47;88.72
53300;BME280;39187;48.476;8.310;2023-04-27T04:45:49;91250.44;;;5.46;88.81
53300;BME280;39187;48.476;8.310;2023-04-27T04:48:15;91250.06;;;5.48;89.20
53300;BME280;39187;48.476;8.310;2023-04-27T04:50:41;91253.09;;;5.50;88.83
53300;BME280;39187;48.476;8.310;2023-04-27T04:53:06;91259.88;;;5.54;87.72
53300;BME280;39187;48.476;8.310;2023-04-27T04:55:32;91258.34;;;5.57;87.55
53300;BME280;39187;48.476;8.310;2023-04-27T04:57:58;91257.56;;;5.63;87.24
53300;BME280;39187;48.476;8.310;2023-04-27T05:00:23;91260.22;;;5.60;88.14
53300;BME280;39187;48.476;8.310;2023-04-27T05:02:49;91265.47;;;5.71;87.40
53300;BME280;39187;48.476;8.310;2023-04-27T05:05:14;91259.41;;;5.77;87.43
53300;BME280;39187;48.476;8.310;2023-04-27T05:07:40;91261.28;;;5.84;88.08
53300;BME280;39187;48.476;8.310;2023-04-27T05:10:06;91262.84;;;5.88;89.14
53300;BME280;39187;48.476;8.310;2023-04-27T05:12:31;91274.88;;;6.00;88.80
53300;BME280;39187;48.476;8.310;2023-04-27T05:14:57;91274.47;;;6.05;88.81
53300;BME280;39187;48.476;8.310;2023-04-27T05:17:22;91281.22;;;6.10;88.47
53300;BME280;39187;48.476;8.310;2023-04-27T05:19:48;91278.94;;;6.19;88.53
53300;BME280;39187;48.476;8.310;2023-04-27T05:22:13;91280.06;;;6.25;88.28
53300;BME280;39187;48.476;8.310;2023-04-27T05:24:39;91280.03;;;6.32;89.21
53300;BME280;39187;48.476;8.310;2023-04-27T05:27:05;91277.69;;;6.41;90.43
53300;BME280;39187;48.476;8.310;2023-04-27T05:29:30;91278.03;;;6.50;90.71
53300;BME280;39187;48.476;8.310;2023-04-27T05:31:56;91285.91;;;6.64;90.30
53300;BME280;39187;48.476;8.310;2023-04-27T05:34:22;91281.69;;;6.77;89.14
53300;BME280;39187;48.476;8.310;2023-04-27T05:36:47;91283.06;;;6.93;87.88
53300;BME280;39187;48.476;8.310;2023-04-27T05:39:13;91289.34;;;7.16;87.89
53300;BME280;39187;48.476;8.310;2023-04-27T05:41:39;91289.97;;;7.31;88.21
53300;BME280;39187;48.476;8.310;2023-04-27T05:44:05;91291.75;;;7.45;89.14
53300;BME280;39187;48.476;8.310;2023-04-27T05:46:31;91297.44;;;7.47;88.67
53300;BME280;39187;48.476;8.310;2023-04-27T05:48:57;91291.25;;;7.60;88.53
53300;BME280;39187;48.476;8.310;2023-04-27T05:51:23;91298.06;;;7.61;90.11
53300;BME280;39187;48.476;8.310;2023-04-27T05:53:49;91297.66;;;7.63;90.36
53300;BME280;39187;48.476;8.310;2023-04-27T05:56:14;91301.03;;;7.67;91.80
53300;BME280;39187;48.476;8.310;2023-04-27T05:58:40;91301.03;;;7.67;90.52
53300;BME280;39187;48.476;8.310;2023-04-27T06:01:06;91305.16;;;7.72;90.91
53300;BME280;39187;48.476;8.310;2023-04-27T06:03:32;91314.94;;;7.78;91.31
53300;BME280;39187;48.476;8.310;2023-04-27T06:05:59;91299.41;;;7.80;92.77
53300;BME280;39187;48.476;8.310;2023-04-27T06:08:25;91307.81;;;7.72;92.30
53300;BME280;39187;48.476;8.310;2023-04-27T06:10:51;91307.97;;;7.54;91.25
53300;BME280;39187;48.476;8.310;2023-04-27T06:13:17;91312.13;;;7.55;91.09
53300;BME280;39187;48.476;8.310;2023-04-27T06:15:43;91311.59;;;7.71;89.91
53300;BME280;39187;48.476;8.310;2023-04-27T06:18:09;91317.19;;;7.80;89.05
53300;BME280;39187;48.476;8.310;2023-04-27T06:20:34;91315.22;;;7.87;88.24
53300;BME280;39187;48.476;8.310;2023-04-27T06:23:01;91332.94;;;7.94;88.49
53300;BME280;39187;48.476;8.310;2023-04-27T06:25:26;91325.34;;;7.99;87.81
53300;BME280;39187;48.476;8.310;2023-04-27T06:27:56;91326.13;;;7.96;87.36
53300;BME280;39187;48.476;8.310;2023-04-27T06:30:23;91327.94;;;8.03;86.46
53300;BME280;39187;48.476;8.310;2023-04-27T06:32:50;91336.22;;;8.09;86.64
53300;BME280;39187;48.476;8.310;2023-04-27T06:35:16;91331.66;;;8.13;86.04
53300;BME280;39187;48.476;8.310;2023-04-27T06:37:42;91333.56;;;8.09;86.23
53300;BME280;39187;48.476;8.310;2023-04-27T06:40:09;91335.03;;;8.13;86.23
53300;BME280;39187;48.476;8.310;2023-04-27T06:42:36;91332.34;;;8.17;86.21
53300;BME280;39187;48.476;8.310;2023-04-27T06:45:02;91339.50;;;8.20;86.11
53300;BME280;39187;48.476;8.310;2023-04-27T06:47:29;91332.31;;;8.20;86.33
53300;BME280;39187;48.476;8.310;2023-04-27T06:49:54;91338.28;;;8.28;85.70
53300;BME280;39187;48.476;8.310;2023-04-27T06:52:20;91345.56;;;8.20;85.53
53300;BME280;39187;48.476;8.310;2023-04-27T06:54:46;91334.88;;;8.27;84.86
53300;BME280;39187;48.476;8.310;2023-04-27T06:57:11;91336.91;;;8.16;86.08
53300;BME280;39187;48.476;8.310;2023-04-27T06:59:37;91343.59;;;8.31;85.51
53300;BME280;39187;48.476;8.310;2023-04-27T07:02:02;91336.47;;;8.21;85.52
53300;BME280;39187;48.476;8.310;2023-04-27T07:04:28;91345.94;;;8.22;85.15
53300;BME280;39187;48.476;8.310;2023-04-27T07:06:54;91340.81;;;8.42;84.38
53300;BME280;39187;48.476;8.310;2023-04-27T07:09:20;91332.78;;;8.49;84.39
53300;BME280;39187;48.476;8.310;2023-04-27T07:11:46;91339.53;;;8.57;84.53
53300;BME280;39187;48.476;8.310;2023-04-27T07:14:11;91328.03;;;8.67;83.22
53300;BME280;39187;48.476;8.310;2023-04-27T07:16:37;91331.66;;;8.50;82.65
53300;BME280;39187;48.476;8.310;2023-04-27T07:19:03;91338.25;;;8.69;81.91
53300;BME280;39187;48.476;8.310;2023-04-27T07:21:28;91337.63;;;8.88;81.18
53300;BME280;39187;48.476;8.310;2023-04-27T07:23:54;91338.72;;;8.91;80.83
53300;BME280;39187;48.476;8.310;2023-04-27T07:26:19;91336.31;;;9.00;80.31
53300;BME280;39187;48.476;8.310;2023-04-27T07:28:48;91333.28;;;9.01;79.92
53300;BME280;39187;48.476;8.310;2023-04-27T07:31:14;91336.59;;;9.09;79.83
53300;BME280;39187;48.476;8.310;2023-04-27T07:33:40;91332.38;;;9.11;78.03
53300;BME280;39187;48.476;8.310;2023-04-27T07:36:06;91327.31;;;9.20;77.02
53300;BME280;39187;48.476;8.310;2023-04-27T07:38:32;91338.16;;;9.33;76.18
53300;BME280;39187;48.476;8.310;2023-04-27T07:40:59;91334.78;;;9.29;73.36
53300;BME280;39187;48.476;8.310;2023-04-27T07:43:26;91343.56;;;9.26;73.62
53300;BME280;39187;48.476;8.310;2023-04-27T07:45:51;91336.63;;;9.32;72.45
53300;BME280;39187;48.476;8.310;2023-04-27T07:48:18;91336.47;;;9.43;72.24
53300;BME280;39187;48.476;8.310;2023-04-27T07:50:44;91336.63;;;9.59;71.72
53300;BME280;39187;48.476;8.310;2023-04-27T07:53:09;91339.47;;;9.72;71.53
53300;BME280;39187;48.476;8.310;2023-04-27T07:55:35;91332.81;;;9.83;71.61
53300;BME280;39187;48.476;8.310;2023-04-27T07:58:01;91333.72;;;9.73;73.31
53300;BME280;39187;48.476;8.310;2023-04-27T08:00:26;91342.88;;;9.72;73.10
53300;BME280;39187;48.476;8.310;2023-04-27T08:02:53;91332.47;;;9.81;72.58
53300;BME280;39187;48.476;8.310;2023-04-27T08:05:18;91340.13;;;9.99;71.74
53300;BME280;39187;48.476;8.310;2023-04-27T08:07:44;91331.28;;;10.05;71.23
53300;BME280;39187;48.476;8.310;2023-04-27T08:10:09;91338.50;;;10.05;70.85
53300;BME280;39187;48.476;8.310;2023-04-27T08:12:35;91349.91;;;10.05;72.26
53300;BME280;39187;48.476;8.310;2023-04-27T08:15:01;91345.56;;;10.15;70.45
53300;BME280;39187;48.476;8.310;2023-04-27T08:17:26;91346.09;;;10.30;69.64
53300;BME280;39187;48.476;8.310;2023-04-27T08:19:52;91325.63;;;10.03;71.09
53300;BME280;39187;48.476;8.310;2023-04-27T08:22:17;91340.63;;;10.17;71.50
53300;BME280;39187;48.476;8.310;2023-04-27T08:24:43;91333.88;;;10.32;70.34
53300;BME280;39187;48.476;8.310;2023-04-27T08:27:09;91334.38;;;10.47;71.22
53300;BME280;39187;48.476;8.310;2023-04-27T08:29:35;91333.47;;;10.93;69.08
53300;BME280;39187;48.476;8.310;2023-04-27T08:34:39;91328.59;;;11.08;68.82
53300;BME280;39187;48.476;8.310;2023-04-27T08:37:05;91331.19;;;11.11;69.18
53300;BME280;39187;48.476;8.310;2023-04-27T08:39:31;91323.25;;;11.08;68.82
53300;BME280;39187;48.476;8.310;2023-04-27T08:41:57;91328.78;;;11.17;69.79
53300;BME280;39187;48.476;8.310;2023-04-27T08:44:22;91328.03;;;12.01;67.03
53300;BME280;39187;48.476;8.310;2023-04-27T08:46:49;91326.16;;;12.59;64.79
53300;BME280;39187;48.476;8.310;2023-04-27T08:49:15;91320.59;;;12.54;62.73
53300;BME280;39187;48.476;8.310;2023-04-27T08:51:41;91319.38;;;12.55;64.01
53300;BME280;39187;48.476;8.310;2023-04-27T08:54:07;91325.50;;;12.97;61.86
53300;BME280;39187;48.476;8.310;2023-04-27T08:56:32;91325.78;;;13.65;59.95
53300;BME280;39187;48.476;8.310;2023-04-27T08:58:59;91323.69;;;14.20;58.62
53300;BME280;39187;48.476;8.310;2023-04-27T09:01:25;91322.56;;;14.30;56.64
53300;BME280;39187;48.476;8.310;2023-04-27T09:03:55;91328.13;;;13.89;56.11
53300;BME280;39187;48.476;8.310;2023-04-27T09:06:33;91337.16;;;14.17;55.56
53300;BME280;39187;48.476;8.310;2023-04-27T09:09:00;91335.47;;;14.10;55.82
53300;BME280;39187;48.476;8.310;2023-04-27T09:11:46;91329.13;;;13.57;56.33
53300;BME280;39187;48.476;8.310;2023-04-27T09:14:16;91336.16;;;13.89;57.37
53300;BME280;39187;48.476;8.310;2023-04-27T09:16:42;91325.84;;;14.47;56.82
53300;BME280;39187;48.476;8.310;2023-04-27T09:19:08;91335.78;;;14.12;56.36
53300;BME280;39187;48.476;8.310;2023-04-27T09:21:33;91338.84;;;14.70;54.29
53300;BME280;39187;48.476;8.310;2023-04-27T09:24:12;91332.28;;;13.90;54.83
53300;BME280;39187;48.476;8.310;2023-04-27T09:26:38;91336.41;;;14.16;55.99
53300;BME280;39187;48.476;8.310;2023-04-27T09:29:04;91324.84;;;15.10;53.99
53300;BME280;39187;48.476;8.310;2023-04-27T09:31:31;91332.09;;;13.84;55.48
53300;BME280;39187;48.476;8.310;2023-04-27T09:33:57;91323.31;;;14.31;52.87
53300;BME280;39187;48.476;8.310;2023-04-27T09:36:23;91333.50;;;14.23;55.64
53300;BME280;39187;48.476;8.310;2023-04-27T09:38:50;91331.56;;;14.71;52.84
53300;BME280;39187;48.476;8.310;2023-04-27T09:41:16;91337.16;;;14.85;52.14
53300;BME280;39187;48.476;8.310;2023-04-27T09:43:45;91336.06;;;14.96;50.44
53300;BME280;39187;48.476;8.310;2023-04-27T09:46:13;91336.50;;;14.94;51.50
53300;BME280;39187;48.476;8.310;2023-04-27T09:48:39;91329.22;;;15.25;50.16
53300;BME280;39187;48.476;8.310;2023-04-27T09:51:05;91332.22;;;14.28;50.91
53300;BME280;39187;48.476;8.310;2023-04-27T09:53:48;91327.69;;;14.94;50.02
53300;BME280;39187;48.476;8.310;2023-04-27T09:56:53;91336.31;;;14.89;48.46
53300;BME280;39187;48.476;8.310;2023-04-27T10:02:03;91335.00;;;14.93;50.20
53300;BME280;39187;48.476;8.310;2023-04-27T10:04:50;91329.00;;;14.67;50.56
53300;BME280;39187;48.476;8.310;2023-04-27T10:07:20;91326.75;;;14.44;49.53
53300;BME280;39187;48.476;8.310;2023-04-27T10:09:48;91317.00;;;14.37;49.99
53300;BME280;39187;48.476;8.310;2023-04-27T10:12:25;91332.25;;;14.84;50.45
53300;BME280;39187;48.476;8.310;2023-04-27T10:14:56;91329.88;;;15.08;49.62
53300;BME280;39187;48.476;8.310;2023-04-27T10:17:34;91331.00;;;14.98;47.10
53300;BME280;39187;48.476;8.310;2023-04-27T10:20:03;91326.34;;;14.89;47.16
53300;BME280;39187;48.476;8.310;2023-04-27T10:22:43;91329.03;;;14.55;47.07
53300;BME280;39187;48.476;8.310;2023-04-27T10:25:20;91329.06;;;14.98;46.74
53300;BME280;39187;48.476;8.310;2023-04-27T10:30:23;91327.34;;;14.48;49.67
53300;BME280;39187;48.476;8.310;2023-04-27T10:32:57;91325.13;;;14.47;49.47
53300;BME280;39187;48.476;8.310;2023-04-27T10:38:05;91334.53;;;14.73;48.27
53300;BME280;39187;48.476;8.310;2023-04-27T10:40:32;91326.06;;;14.53;48.96
53300;BME280;39187;48.476;8.310;2023-04-27T10:43:07;91327.13;;;14.55;48.03
53300;BME280;39187;48.476;8.310;2023-04-27T10:45:33;91330.53;;;14.56;48.97
53300;BME280;39187;48.476;8.310;2023-04-27T10:47:59;91327.09;;;14.90;47.65
53300;BME280;39187;48.476;8.310;2023-04-27T10:50:26;91323.53;;;14.71;48.02
53300;BME280;39187;48.476;8.310;2023-04-27T10:52:52;91327.00;;;14.12;48.08
53300;BME280;39187;48.476;8.310;2023-04-27T10:55:19;91330.91;;;13.73;47.94
53300;BME280;39187;48.476;8.310;2023-04-27T10:57:52;91332.75;;;13.63;47.38
53300;BME280;39187;48.476;8.310;2023-04-27T11:00:37;91333.50;;;12.84;50.74
53300;BME280;39187;48.476;8.310;2023-04-27T11:03:17;91334.97;;;13.27;51.09
53300;BME280;39187;48.476;8.310;2023-04-27T11:05:45;91333.47;;;14.01;49.47
53300;BME280;39187;48.476;8.310;2023-04-27T11:08:16;91341.78;;;14.03;49.91
53300;BME280;39187;48.476;8.310;2023-04-27T11:10:47;91331.44;;;13.93;50.03
53300;BME280;39187;48.476;8.310;2023-04-27T11:13:15;91338.41;;;13.52;50.07
53300;BME280;39187;48.476;8.310;2023-04-27T11:15:49;91336.72;;;12.63;50.62
53300;BME280;39187;48.476;8.310;2023-04-27T11:18:19;91340.06;;;12.67;50.69
53300;BME280;39187;48.476;8.310;2023-04-27T11:20:53;91338.34;;;12.60;52.51
53300;BME280;39187;48.476;8.310;2023-04-27T11:23:27;91340.22;;;13.17;51.40
53300;BME280;39187;48.476;8.310;2023-04-27T11:25:54;91339.78;;;13.44;50.93
53300;BME280;39187;48.476;8.310;2023-04-27T11:28:21;91329.19;;;13.79;50.00
53300;BME280;39187;48.476;8.310;2023-04-27T11:30:54;91337.84;;;13.83;49.44
53300;BME280;39187;48.476;8.310;2023-04-27T11:33:19;91330.06;;;13.76;50.30
53300;BME280;39187;48.476;8.310;2023-04-27T11:35:46;91331.03;;;13.82;50.38
53300;BME280;39187;48.476;8.310;2023-04-27T11:38:16;91330.19;;;13.47;50.94
53300;BME280;39187;48.476;8.310;2023-04-27T11:40:43;91324.63;;;13.29;51.59
53300;BME280;39187;48.476;8.310;2023-04-27T11:43:13;91323.84;;;13.15;51.81
53300;BME280;39187;48.476;8.310;2023-04-27T11:45:41;91326.34;;;13.60;51.74
53300;BME280;39187;48.476;8.310;2023-04-27T11:48:13;91329.00;;;13.48;53.01
53300;BME280;39187;48.476;8.310;2023-04-27T11:50:40;91325.34;;;13.80;51.87
53300;BME280;39187;48.476;8.310;2023-04-27T11:53:05;91320.66;;;13.71;51.01
53300;BME280;39187;48.476;8.310;2023-04-27T11:55:34;91317.22;;;13.71;52.07
53300;BME280;39187;48.476;8.310;2023-04-27T11:58:01;91321.50;;;13.93;52.27
53300;BME280;39187;48.476;8.310;2023-04-27T12:00:26;91320.38;;;14.03;51.88
53300;BME280;39187;48.476;8.310;2023-04-27T12:02:53;91321.50;;;13.81;51.88
53300;BME280;39187;48.476;8.310;2023-04-27T12:05:18;91321.09;;;13.82;50.34
53300;BME280;39187;48.476;8.310;2023-04-27T12:07:44;91325.47;;;13.51;52.25
53300;BME280;39187;48.476;8.310;2023-04-27T12:10:10;91319.06;;;13.48;52.10
53300;BME280;39187;48.476;8.310;2023-04-27T12:12:36;91320.44;;;13.53;52.89
53300;BME280;39187;48.476;8.310;2023-04-27T12:15:02;91316.94;;;12.89;54.67
53300;BME280;39187;48.476;8.310;2023-04-27T12:17:27;91324.94;;;12.89;54.71
53300;BME280;39187;48.476;8.310;2023-04-27T12:19:53;91312.97;;;13.22;54.63
53300;BME280;39187;48.476;8.310;2023-04-27T12:22:19;91321.44;;;12.92;56.21
53300;BME280;39187;48.476;8.310;2023-04-27T12:24:45;91312.13;;;12.84;56.27
53300;BME280;39187;48.476;8.310;2023-04-27T12:27:11;91315.81;;;12.74;55.68
53300;BME280;39187;48.476;8.310;2023-04-27T12:29:37;91317.75;;;12.73;56.33
53300;BME280;39187;48.476;8.310;2023-04-27T12:32:03;91316.91;;;13.18;55.19
53300;BME280;39187;48.476;8.310;2023-04-27T12:34:28;91308.53;;;12.62;57.30
53300;BME280;39187;48.476;8.310;2023-04-27T12:36:54;91318.09;;;13.30;54.35
53300;BME280;39187;48.476;8.310;2023-04-27T12:39:21;91304.41;;;13.53;53.90
53300;BME280;39187;48.476;8.310;2023-04-27T12:41:49;91312.63;;;13.71;52.97
53300;BME280;39187;48.476;8.310;2023-04-27T12:44:16;91309.66;;;13.18;54.00
53300;BME280;39187;48.476;8.310;2023-04-27T12:46:43;91317.97;;;13.58;53.09
53300;BME280;39187;48.476;8.310;2023-04-27T12:49:09;91310.63;;;13.24;53.54
53300;BME280;39187;48.476;8.310;2023-04-27T12:51:36;91315.13;;;12.86;54.83
53300;BME280;39187;48.476;8.310;2023-04-27T12:54:02;91314.16;;;12.80;55.23
53300;BME280;39187;48.476;8.310;2023-04-27T12:56:28;91311.72;;;12.98;56.50
53300;BME280;39187;48.476;8.310;2023-04-27T12:58:54;91322.16;;;13.34;55.45
53300;BME280;39187;48.476;8.310;2023-04-27T13:01:20;91323.44;;;13.30;55.30
53300;BME280;39187;48.476;8.310;2023-04-27T13:03:51;91322.47;;;13.23;55.39
53300;BME280;39187;48.476;8.310;2023-04-27T13:06:18;91309.88;;;12.95;55.59
53300;BME280;39187;48.476;8.310;2023-04-27T13:08:43;91312.63;;;13.33;55.21
53300;BME280;39187;48.476;8.310;2023-04-27T13:11:09;91312.97;;;13.48;56.19
53300;BME280;39187;48.476;8.310;2023-04-27T13:13:35;91299.78;;;13.66;56.27
53300;BME280;39187;48.476;8.310;2023-04-27T13:16:00;91307.00;;;14.03;53.31